createdAt,value
2022-07-29T00:00:31.124Z,18.72
2022-07-29T00:02:59.043Z,18.78
2022-07-29T00:05:27.830Z,18.78
2022-07-29T00:07:57.865Z,18.69
2022-07-29T00:10:27.327Z,18.16
2022-07-29T00:12:56.536Z,18.20
2022-07-29T00:15:24.208Z,18.25
2022-07-29T00:17:51.398Z,18.21
2022-07-29T00:20:19.819Z,18.09
2022-07-29T00:22:47.167Z,17.87
2022-07-29T00:25:14.326Z,17.72
2022-07-29T00:27:43.978Z,17.79
2022-07-29T00:30:12.698Z,17.87
2022-07-29T00:32:40.302Z,17.91
2022-07-29T00:35:29.153Z,17.96
2022-07-29T00:37:56.765Z,18.08
2022-07-29T00:40:25.855Z,17.91
2022-07-29T00:42:54.269Z,17.74
2022-07-29T00:45:23.080Z,17.84
2022-07-29T00:47:53.497Z,17.87
2022-07-29T00:50:20.142Z,17.97
2022-07-29T00:52:48.454Z,18.01
2022-07-29T00:55:17.925Z,18.08
2022-07-29T00:57:45.577Z,18.12
2022-07-29T01:00:15.741Z,18.13
2022-07-29T01:02:47.021Z,18.19
2022-07-29T01:05:17.751Z,18.21
2022-07-29T01:07:47.386Z,18.24
2022-07-29T01:10:15.987Z,18.23
2022-07-29T01:12:44.675Z,18.11
2022-07-29T01:15:12.017Z,18.03
2022-07-29T01:17:53.678Z,17.95
2022-07-29T01:20:34.235Z,17.90
2022-07-29T01:23:38.336Z,17.98
2022-07-29T01:26:40.050Z,17.93
2022-07-29T01:29:38.886Z,17.92
2022-07-29T01:32:22.551Z,17.91
2022-07-29T01:35:23.333Z,17.91
2022-07-29T01:37:59.993Z,17.80
2022-07-29T01:40:41.954Z,17.65
2022-07-29T01:43:16.598Z,17.71
2022-07-29T01:45:49.194Z,17.73
2022-07-29T01:48:19.588Z,17.69
2022-07-29T01:51:21.591Z,17.60
2022-07-29T01:53:59.496Z,17.65
2022-07-29T01:56:30.926Z,17.70
2022-07-29T01:58:58.372Z,17.70
2022-07-29T02:01:26.334Z,17.74
2022-07-29T02:03:56.320Z,17.73
2022-07-29T02:06:24.604Z,17.63
2022-07-29T02:08:52.557Z,17.58
2022-07-29T02:11:19.955Z,17.64
2022-07-29T02:13:49.994Z,17.67
2022-07-29T02:16:20.111Z,17.70
2022-07-29T02:18:51.556Z,17.64
2022-07-29T02:21:24.174Z,17.69
2022-07-29T02:23:54.123Z,17.81
2022-07-29T02:26:24.275Z,17.72
2022-07-29T02:28:53.505Z,17.68
2022-07-29T02:31:26.736Z,17.70
2022-07-29T02:33:57.210Z,17.56
2022-07-29T02:36:28.222Z,17.42
2022-07-29T02:38:58.765Z,17.40
2022-07-29T02:41:36.744Z,17.37
2022-07-29T02:44:16.000Z,17.44
2022-07-29T02:47:02.751Z,17.46
2022-07-29T02:49:35.491Z,17.54
2022-07-29T02:52:14.322Z,17.39
2022-07-29T02:54:58.012Z,17.26
2022-07-29T02:57:35.208Z,17.23
2022-07-29T03:00:06.821Z,17.22
2022-07-29T03:02:41.411Z,17.13
2022-07-29T03:05:10.719Z,17.06
2022-07-29T03:07:38.099Z,16.90
2022-07-29T03:10:10.946Z,16.81
2022-07-29T03:12:41.370Z,16.85
2022-07-29T03:15:09.324Z,16.87
2022-07-29T03:17:38.055Z,16.85
2022-07-29T03:20:05.563Z,16.77
2022-07-29T03:22:33.752Z,16.68
2022-07-29T03:25:09.080Z,16.65
2022-07-29T03:27:37.331Z,16.68
2022-07-29T03:30:06.067Z,16.58
2022-07-29T03:32:36.979Z,16.65
2022-07-29T03:35:07.582Z,16.69
2022-07-29T03:37:34.581Z,16.75
2022-07-29T03:40:04.617Z,16.85
2022-07-29T03:42:34.485Z,16.91
2022-07-29T03:45:04.712Z,16.95
2022-07-29T03:47:50.175Z,16.95
2022-07-29T03:50:20.252Z,16.88
2022-07-29T03:52:49.575Z,16.83
2022-07-29T03:55:17.013Z,16.90
2022-07-29T03:57:46.114Z,16.95
2022-07-29T04:00:16.394Z,16.94
2022-07-29T04:02:50.401Z,16.73
2022-07-29T04:05:18.521Z,16.61
2022-07-29T04:07:47.529Z,16.66
2022-07-29T04:10:16.467Z,16.62
2022-07-29T04:12:44.706Z,16.68
2022-07-29T04:15:12.811Z,16.81
2022-07-29T04:17:39.583Z,16.89
2022-07-29T04:20:07.079Z,16.89
2022-07-29T04:22:35.296Z,16.90
2022-07-29T04:25:04.142Z,16.84
2022-07-29T04:27:33.051Z,16.82
2022-07-29T04:30:02.386Z,16.77
2022-07-29T04:32:30.984Z,16.82
2022-07-29T04:34:59.575Z,16.94
2022-07-29T04:37:29.166Z,17.10
2022-07-29T04:39:56.130Z,17.13
2022-07-29T04:42:29.261Z,17.15
2022-07-29T04:44:59.339Z,17.15
2022-07-29T04:47:31.566Z,17.10
2022-07-29T04:49:59.584Z,16.95
2022-07-29T04:52:27.644Z,16.94
2022-07-29T04:54:55.355Z,16.98
2022-07-29T04:57:24.661Z,17.11
2022-07-29T04:59:54.628Z,17.19
2022-07-29T05:02:24.106Z,17.24
2022-07-29T05:04:54.086Z,17.27
2022-07-29T05:07:21.081Z,17.23
2022-07-29T05:09:49.633Z,17.14
2022-07-29T05:12:16.812Z,17.09
2022-07-29T05:14:44.779Z,17.12
2022-07-29T05:17:13.136Z,17.17
2022-07-29T05:19:40.675Z,17.16
2022-07-29T05:22:09.238Z,17.13
2022-07-29T05:24:37.322Z,17.07
2022-07-29T05:27:05.605Z,17.05
2022-07-29T05:29:45.042Z,17.06
2022-07-29T05:32:13.574Z,16.98
2022-07-29T05:34:51.291Z,17.02
2022-07-29T05:37:21.662Z,17.07
2022-07-29T05:39:50.379Z,17.17
2022-07-29T05:42:25.348Z,17.29
2022-07-29T05:44:53.476Z,17.40
2022-07-29T05:47:22.295Z,17.50
2022-07-29T05:49:49.764Z,17.63
2022-07-29T05:52:17.520Z,17.77
2022-07-29T05:54:45.603Z,17.87
2022-07-29T05:57:20.995Z,18.01
2022-07-29T05:59:48.361Z,18.12
2022-07-29T06:02:16.480Z,18.22
2022-07-29T06:04:46.138Z,18.25
2022-07-29T06:07:14.256Z,18.37
2022-07-29T06:09:42.247Z,18.45
2022-07-29T06:12:10.396Z,18.43
2022-07-29T06:14:39.452Z,18.44
2022-07-29T06:17:07.959Z,18.54
2022-07-29T06:19:37.408Z,18.77
2022-07-29T06:22:06.180Z,18.87
2022-07-29T06:24:33.792Z,18.78
2022-07-29T06:27:06.073Z,18.85
2022-07-29T06:29:33.710Z,19.01
2022-07-29T06:32:01.510Z,19.18
2022-07-29T06:34:32.237Z,19.27
2022-07-29T06:37:03.733Z,19.30
2022-07-29T06:39:31.327Z,19.42
2022-07-29T06:42:00.734Z,19.47
2022-07-29T06:44:31.980Z,19.52
2022-07-29T06:47:01.252Z,19.57
2022-07-29T06:49:29.536Z,19.72
2022-07-29T06:51:59.627Z,19.85
2022-07-29T06:54:27.176Z,19.99
2022-07-29T06:56:56.564Z,20.02
2022-07-29T06:59:32.199Z,20.03
2022-07-29T07:02:04.600Z,20.18
2022-07-29T07:04:33.415Z,20.20
2022-07-29T07:07:00.641Z,20.21
2022-07-29T07:09:39.956Z,20.28
2022-07-29T07:12:07.628Z,20.38
2022-07-29T07:14:35.505Z,20.49
2022-07-29T07:17:04.882Z,20.52
2022-07-29T07:19:32.587Z,20.56
2022-07-29T07:22:00.554Z,20.62
2022-07-29T07:24:28.749Z,20.74
2022-07-29T07:26:56.488Z,20.79
2022-07-29T07:29:23.369Z,20.97
2022-07-29T07:31:50.263Z,21.17
2022-07-29T07:34:17.630Z,21.33
2022-07-29T07:36:57.072Z,21.45
2022-07-29T07:39:26.976Z,21.49
2022-07-29T07:41:54.435Z,21.56
2022-07-29T07:44:22.854Z,21.64
2022-07-29T07:46:50.338Z,21.58
2022-07-29T07:49:17.258Z,21.57
2022-07-29T07:51:50.657Z,21.67
2022-07-29T07:54:20.819Z,21.64
2022-07-29T07:56:49.977Z,21.57
2022-07-29T07:59:20.077Z,21.36
2022-07-29T08:01:55.517Z,21.38
2022-07-29T08:04:28.711Z,21.59
2022-07-29T08:06:58.362Z,21.57
2022-07-29T08:09:29.679Z,21.77
2022-07-29T08:12:00.295Z,21.84
2022-07-29T08:14:29.476Z,21.89
2022-07-29T08:16:57.645Z,22.04
2022-07-29T08:19:25.208Z,21.95
2022-07-29T08:21:54.803Z,22.03
2022-07-29T08:24:47.053Z,22.25
2022-07-29T08:27:41.122Z,22.45
2022-07-29T08:30:09.228Z,22.56
2022-07-29T08:32:55.506Z,22.61
2022-07-29T08:35:25.978Z,22.81
2022-07-29T08:37:54.867Z,22.96
2022-07-29T08:40:30.498Z,23.05
2022-07-29T08:43:08.496Z,23.33
2022-07-29T08:45:51.163Z,23.46
2022-07-29T08:48:24.870Z,23.73
2022-07-29T08:50:56.919Z,23.62
2022-07-29T08:53:30.176Z,23.86
2022-07-29T08:55:58.964Z,23.86
2022-07-29T08:58:27.826Z,23.91
2022-07-29T09:00:56.634Z,23.94
2022-07-29T09:03:31.485Z,23.91
2022-07-29T09:06:03.751Z,24.03
2022-07-29T09:08:33.624Z,24.16
2022-07-29T09:11:02.418Z,24.32
2022-07-29T09:13:30.925Z,24.53
2022-07-29T09:15:57.848Z,24.84
2022-07-29T09:18:36.685Z,25.10
2022-07-29T09:21:23.487Z,25.08
2022-07-29T09:24:13.436Z,25.02
2022-07-29T09:26:44.235Z,25.02
2022-07-29T09:29:19.578Z,24.91
2022-07-29T09:31:48.402Z,24.89
2022-07-29T09:34:18.402Z,24.88
2022-07-29T09:36:50.278Z,24.99
2022-07-29T09:39:35.206Z,24.91
2022-07-29T09:42:04.924Z,25.01
2022-07-29T09:44:49.775Z,24.98
2022-07-29T09:47:19.177Z,25.04
2022-07-29T09:50:00.899Z,25.22
2022-07-29T09:52:29.137Z,25.33
2022-07-29T09:55:09.123Z,25.24
2022-07-29T09:57:38.006Z,25.22
2022-07-29T10:00:09.603Z,25.24
2022-07-29T10:02:47.561Z,25.26
2022-07-29T10:05:25.902Z,25.03
2022-07-29T10:07:58.469Z,25.10
2022-07-29T10:10:30.319Z,25.19
2022-07-29T10:13:07.196Z,25.37
2022-07-29T10:15:39.518Z,25.58
2022-07-29T10:18:07.173Z,25.92
2022-07-29T10:20:37.161Z,25.96
2022-07-29T10:23:05.019Z,26.06
2022-07-29T10:25:32.559Z,26.59
2022-07-29T10:28:01.393Z,26.79
2022-07-29T10:30:29.553Z,27.02
2022-07-29T10:33:18.061Z,27.23
2022-07-29T10:36:13.125Z,27.48
2022-07-29T10:39:00.456Z,27.93
2022-07-29T10:42:01.030Z,28.11
2022-07-29T10:44:31.268Z,27.97
2022-07-29T10:47:01.714Z,27.88
2022-07-29T10:49:31.253Z,27.61
2022-07-29T10:52:10.358Z,27.13
2022-07-29T10:54:48.773Z,27.27
2022-07-29T10:57:53.412Z,27.31
2022-07-29T11:00:28.717Z,27.31
2022-07-29T11:02:59.517Z,27.34
2022-07-29T11:05:39.933Z,27.23
2022-07-29T11:08:20.297Z,27.03
2022-07-29T11:10:49.833Z,26.62
2022-07-29T11:13:54.382Z,26.34
2022-07-29T11:16:25.041Z,26.95
2022-07-29T11:19:13.390Z,27.64
2022-07-29T11:21:55.003Z,28.21
2022-07-29T11:24:30.128Z,28.31
2022-07-29T11:27:10.228Z,28.63
2022-07-29T11:29:41.449Z,28.78
2022-07-29T11:35:38.432Z,29.59
2022-07-29T11:38:23.198Z,30.09
2022-07-29T11:41:18.541Z,30.42
2022-07-29T11:44:05.190Z,30.65
2022-07-29T11:46:50.014Z,30.92
2022-07-29T11:49:22.283Z,30.93
2022-07-29T11:52:05.589Z,30.69
2022-07-29T11:54:57.525Z,30.98
2022-07-29T11:57:36.698Z,31.45
2022-07-29T12:00:10.050Z,31.49
2022-07-29T12:05:36.915Z,31.73
2022-07-29T12:08:17.126Z,31.95
2022-07-29T12:10:44.990Z,32.03
2022-07-29T12:13:13.360Z,32.12
2022-07-29T12:15:47.248Z,32.40
2022-07-29T12:18:18.515Z,32.24
2022-07-29T12:20:50.275Z,32.17
2022-07-29T12:23:22.599Z,31.94
2022-07-29T12:25:51.102Z,31.72
2022-07-29T12:28:26.935Z,31.62
2022-07-29T12:30:55.508Z,31.83
2022-07-29T12:33:30.553Z,31.54
2022-07-29T12:36:06.693Z,30.67
2022-07-29T12:38:37.452Z,30.09
2022-07-29T12:41:08.286Z,29.92
2022-07-29T12:43:36.619Z,29.60
2022-07-29T12:46:14.301Z,29.69
2022-07-29T12:48:44.053Z,29.88
2022-07-29T12:51:17.815Z,30.51
2022-07-29T12:54:05.159Z,30.62
2022-07-29T12:56:43.671Z,30.00
2022-07-29T12:59:17.297Z,29.71
2022-07-29T13:01:52.159Z,29.30
2022-07-29T13:04:27.496Z,29.21
2022-07-29T13:07:04.787Z,29.03
2022-07-29T13:09:43.855Z,29.11
2022-07-29T13:12:13.719Z,28.94
2022-07-29T13:14:41.729Z,28.73
2022-07-29T13:17:24.657Z,28.47
2022-07-29T13:19:54.251Z,28.31
2022-07-29T13:22:23.249Z,28.27
2022-07-29T13:24:55.678Z,27.91
2022-07-29T13:27:24.970Z,27.98
2022-07-29T13:29:54.144Z,27.90
2022-07-29T13:32:28.527Z,27.83
2022-07-29T13:34:58.127Z,27.62
2022-07-29T13:37:27.454Z,27.64
2022-07-29T13:39:55.252Z,27.58
2022-07-29T13:42:21.970Z,27.42
2022-07-29T13:44:52.581Z,27.26
2022-07-29T13:47:20.340Z,27.08
2022-07-29T13:49:47.341Z,26.90
2022-07-29T13:52:14.183Z,26.71
2022-07-29T13:54:42.685Z,26.53
2022-07-29T13:57:13.662Z,26.38
2022-07-29T13:59:43.006Z,26.25
2022-07-29T14:02:10.970Z,26.12
2022-07-29T14:04:39.565Z,26.14
2022-07-29T14:07:08.275Z,26.18
2022-07-29T14:09:41.313Z,26.26
2022-07-29T14:12:10.727Z,26.35
2022-07-29T14:14:37.777Z,26.25
2022-07-29T14:17:07.419Z,26.10
2022-07-29T14:19:39.863Z,25.98
2022-07-29T14:22:09.418Z,25.91
2022-07-29T14:24:41.763Z,25.69
2022-07-29T14:27:10.275Z,25.69
2022-07-29T14:29:38.883Z,25.67
2022-07-29T14:32:11.411Z,25.66
2022-07-29T14:34:40.592Z,25.55
2022-07-29T14:37:09.534Z,25.46
2022-07-29T14:39:44.638Z,25.46
2022-07-29T14:42:12.535Z,25.42
2022-07-29T14:44:42.263Z,25.31
2022-07-29T14:47:10.378Z,25.21
2022-07-29T14:49:40.115Z,25.17
2022-07-29T14:52:08.779Z,25.26
2022-07-29T14:54:37.666Z,25.29
2022-07-29T14:57:05.499Z,25.48
2022-07-29T14:59:32.982Z,25.66
2022-07-29T15:02:03.959Z,25.70
2022-07-29T15:04:35.719Z,25.58
2022-07-29T15:07:05.434Z,25.57
2022-07-29T15:09:33.508Z,25.60
2022-07-29T15:12:09.006Z,25.50
2022-07-29T15:14:36.980Z,25.57
2022-07-29T15:17:04.538Z,25.47
2022-07-29T15:19:33.900Z,25.37
2022-07-29T15:22:01.505Z,25.27
2022-07-29T15:24:29.900Z,25.30
2022-07-29T15:26:58.297Z,25.31
2022-07-29T15:29:25.154Z,25.32
2022-07-29T15:31:51.849Z,25.31
2022-07-29T15:34:18.656Z,25.32
2022-07-29T15:36:53.999Z,25.38
2022-07-29T15:39:21.782Z,25.43
2022-07-29T15:41:48.710Z,25.46
2022-07-29T15:44:16.704Z,25.45
2022-07-29T15:47:03.496Z,25.53
2022-07-29T15:49:47.971Z,25.47
2022-07-29T15:52:18.781Z,25.26
2022-07-29T15:54:47.093Z,25.21
2022-07-29T15:57:15.556Z,25.20
2022-07-29T15:59:44.109Z,25.21
2022-07-29T16:02:11.968Z,25.15
2022-07-29T16:04:40.406Z,25.08
2022-07-29T16:07:09.217Z,25.06
2022-07-29T16:09:37.183Z,25.05
2022-07-29T16:12:14.733Z,25.02
2022-07-29T16:14:49.291Z,24.98
2022-07-29T16:17:17.784Z,24.93
2022-07-29T16:19:47.084Z,24.86
2022-07-29T16:22:17.514Z,24.85
2022-07-29T16:24:45.284Z,24.73
2022-07-29T16:27:12.443Z,24.66
2022-07-29T16:29:40.087Z,24.59
2022-07-29T16:32:07.649Z,24.57
2022-07-29T16:34:37.367Z,24.55
2022-07-29T16:37:06.563Z,24.51
2022-07-29T16:39:36.205Z,24.50
2022-07-29T16:42:05.562Z,24.48
2022-07-29T16:44:36.063Z,24.45
2022-07-29T16:47:03.952Z,24.41
2022-07-29T16:49:32.312Z,24.31
2022-07-29T16:52:00.249Z,24.27
2022-07-29T16:54:27.962Z,24.25
2022-07-29T16:56:57.195Z,24.20
2022-07-29T16:59:26.315Z,24.14
2022-07-29T17:01:54.048Z,24.04
2022-07-29T17:04:23.912Z,24.00
2022-07-29T17:06:51.968Z,23.94
2022-07-29T17:09:21.000Z,23.84
2022-07-29T17:11:55.913Z,23.87
2022-07-29T17:14:26.144Z,23.67
2022-07-29T17:17:01.018Z,23.65
2022-07-29T17:19:32.404Z,23.49
2022-07-29T17:22:10.117Z,23.36
2022-07-29T17:24:41.088Z,23.16
2022-07-29T17:27:09.384Z,22.99
2022-07-29T17:29:36.430Z,22.98
2022-07-29T17:32:03.808Z,22.97
2022-07-29T17:34:32.721Z,22.75
2022-07-29T17:37:00.656Z,22.36
2022-07-29T17:39:27.928Z,22.07
2022-07-29T17:41:55.495Z,21.97
2022-07-29T17:44:22.294Z,21.84
2022-07-29T17:46:50.435Z,21.56
2022-07-29T17:49:18.555Z,21.36
2022-07-29T17:51:46.523Z,21.10
2022-07-29T17:54:13.692Z,20.83
2022-07-29T17:56:40.400Z,20.87
2022-07-29T17:59:10.056Z,20.71
2022-07-29T18:01:40.779Z,20.58
2022-07-29T18:04:09.487Z,20.52
2022-07-29T18:06:38.914Z,20.28
2022-07-29T18:09:07.428Z,20.14
2022-07-29T18:11:37.371Z,20.04
2022-07-29T18:14:09.062Z,20.00
2022-07-29T18:16:38.563Z,19.76
2022-07-29T18:19:05.452Z,19.64
2022-07-29T18:21:43.687Z,19.68
2022-07-29T18:24:18.941Z,19.54
2022-07-29T18:26:47.438Z,19.47
2022-07-29T18:29:16.604Z,19.52
2022-07-29T18:31:44.937Z,19.48
2022-07-29T18:34:13.949Z,19.30
2022-07-29T18:36:41.182Z,19.24
2022-07-29T18:39:09.477Z,19.13
2022-07-29T18:41:50.005Z,19.21
2022-07-29T18:44:22.096Z,19.09
2022-07-29T18:46:52.439Z,19.00
2022-07-29T18:49:20.446Z,18.88
2022-07-29T18:51:49.345Z,18.73
2022-07-29T18:54:21.343Z,18.79
2022-07-29T18:56:52.042Z,18.73
2022-07-29T18:59:22.008Z,18.69
2022-07-29T19:01:53.870Z,18.51
2022-07-29T19:04:25.509Z,18.58
2022-07-29T19:06:53.204Z,18.52
2022-07-29T19:09:20.766Z,18.44
2022-07-29T19:11:52.995Z,18.43
2022-07-29T19:14:25.193Z,18.38
2022-07-29T19:16:51.780Z,18.36
2022-07-29T19:19:18.680Z,18.33
2022-07-29T19:21:47.007Z,18.30
2022-07-29T19:24:15.746Z,18.28
2022-07-29T19:26:49.575Z,18.13
2022-07-29T19:29:16.818Z,18.20
2022-07-29T19:31:43.854Z,18.12
2022-07-29T19:34:12.167Z,18.14
2022-07-29T19:36:40.884Z,18.19
2022-07-29T19:39:07.758Z,18.05
2022-07-29T19:41:35.430Z,18.12
2022-07-29T19:44:02.313Z,18.21
2022-07-29T19:46:29.172Z,18.18
2022-07-29T19:48:58.058Z,18.11
2022-07-29T19:51:26.950Z,18.13
2022-07-29T19:53:53.949Z,18.04
2022-07-29T19:56:25.263Z,18.01
2022-07-29T19:58:56.109Z,18.15
2022-07-29T20:01:34.606Z,18.20
2022-07-29T20:04:04.700Z,18.23
2022-07-29T20:06:32.424Z,18.17
2022-07-29T20:09:00.284Z,18.21
2022-07-29T20:11:29.573Z,18.15
2022-07-29T20:13:57.283Z,18.18
2022-07-29T20:16:25.447Z,18.16
2022-07-29T20:18:52.203Z,18.11
2022-07-29T20:21:21.130Z,18.14
2022-07-29T20:23:50.580Z,18.05
2022-07-29T20:26:18.340Z,18.02
2022-07-29T20:28:49.695Z,18.09
2022-07-29T20:31:17.303Z,18.10
2022-07-29T20:33:45.811Z,18.07
2022-07-29T20:36:14.805Z,18.07
2022-07-29T20:38:45.370Z,18.10
2022-07-29T20:41:14.235Z,17.99
2022-07-29T20:43:41.686Z,17.98
2022-07-29T20:46:11.382Z,18.03
2022-07-29T20:48:40.792Z,17.94
2022-07-29T20:51:11.329Z,17.98
2022-07-29T20:53:43.083Z,17.91
2022-07-29T20:56:12.350Z,18.00
2022-07-29T20:58:40.882Z,18.04
2022-07-29T21:04:04.611Z,17.93
2022-07-29T21:06:34.676Z,17.99
2022-07-29T21:09:06.541Z,18.00
2022-07-29T21:11:43.385Z,18.00
2022-07-29T21:14:33.368Z,18.05
2022-07-29T21:17:01.686Z,17.96
2022-07-29T21:19:28.696Z,17.99
2022-07-29T21:21:55.384Z,17.97
2022-07-29T21:24:22.718Z,17.92
2022-07-29T21:27:11.074Z,17.92
2022-07-29T21:29:36.757Z,17.94
2022-07-29T21:32:03.670Z,17.93
2022-07-29T21:34:31.082Z,17.95
2022-07-29T21:36:58.466Z,18.00
2022-07-29T21:39:25.218Z,17.97
2022-07-29T21:41:51.838Z,17.99
2022-07-29T21:44:20.987Z,18.03
2022-07-29T21:46:49.002Z,18.06
2022-07-29T21:49:16.837Z,18.08
2022-07-29T21:51:43.778Z,18.09
2022-07-29T21:54:10.430Z,18.06
2022-07-29T21:56:37.958Z,18.05
2022-07-29T21:59:10.427Z,18.10
2022-07-29T22:01:40.046Z,18.09
2022-07-29T22:04:10.395Z,18.13
2022-07-29T22:06:39.447Z,18.18
2022-07-29T22:09:07.964Z,18.17
2022-07-29T22:11:36.878Z,18.13
2022-07-29T22:14:05.620Z,18.09
2022-07-29T22:16:33.485Z,18.09
2022-07-29T22:19:03.731Z,17.99
2022-07-29T22:21:33.050Z,17.93
2022-07-29T22:24:04.379Z,17.86
2022-07-29T22:26:32.190Z,17.69
2022-07-29T22:29:02.047Z,17.69
2022-07-29T22:31:29.046Z,17.77
2022-07-29T22:33:59.146Z,17.71
2022-07-29T22:36:27.108Z,17.71
2022-07-29T22:38:54.967Z,17.68
2022-07-29T22:41:24.804Z,17.54
2022-07-29T22:43:53.843Z,17.38
2022-07-29T22:46:21.796Z,17.41
2022-07-29T22:48:49.907Z,17.51
2022-07-29T22:51:17.558Z,17.53
2022-07-29T22:53:47.092Z,17.49
2022-07-29T22:56:14.370Z,17.50
2022-07-29T22:58:42.641Z,17.45
2022-07-29T23:01:11.084Z,17.52
2022-07-29T23:03:39.346Z,17.60
2022-07-29T23:06:10.085Z,17.65
2022-07-29T23:08:37.371Z,17.63
2022-07-29T23:11:04.897Z,17.61
2022-07-29T23:13:32.591Z,17.40
2022-07-29T23:15:59.309Z,17.45
2022-07-29T23:18:26.011Z,17.47
2022-07-29T23:20:53.500Z,17.48
2022-07-29T23:23:20.300Z,17.56
2022-07-29T23:25:46.977Z,17.55
2022-07-29T23:28:14.310Z,17.62
2022-07-29T23:30:41.604Z,17.58
2022-07-29T23:33:08.358Z,17.59
2022-07-29T23:35:35.661Z,17.62
2022-07-29T23:38:02.996Z,17.65
2022-07-29T23:40:29.772Z,17.64
2022-07-29T23:42:56.566Z,17.63
2022-07-29T23:45:23.487Z,17.45
2022-07-29T23:48:09.674Z,17.50
2022-07-29T23:50:36.658Z,17.46
2022-07-29T23:53:04.431Z,17.46
2022-07-29T23:55:37.497Z,17.28
2022-07-29T23:58:06.229Z,17.31
